Time;durP1;ratioP1;P1;durP2;ratioP2;P2;SDS_P1;SDS_P2;PMS_P1;PMS_P2;Temp;Humidity;BMP_temperature;BMP_pressure;BME280_temperature;BME280_humidity;BME280_pressure;Samples;Min_cycle;Max_cycle;Signal;HPM_P1;HPM_P2
2020/12/28 00:00:00;;;;;;;2.37;1.30;;;;;;;;;;5056706;28;20779;-71
2020/12/28 00:02:29;;;;;;;2.17;1.30;;;;;;;;;;5056911;28;20529;-71
2020/12/28 00:04:57;;;;;;;2.97;1.30;;;;;;;;;;5056458;28;20461;-72
2020/12/28 00:07:30;;;;;;;2.53;1.30;;;;;;;;;;5057322;28;21061;-73
2020/12/28 00:10:00;;;;;;;2.40;1.47;;;;;;;;;;5056973;28;20492;-71
2020/12/28 00:12:32;;;;;;;2.53;1.63;;;;;;;;;;5055983;28;20454;-72
2020/12/28 00:15:16;;;;;;;3.80;1.40;;;;;;;;;;5056840;28;20501;-72
2020/12/28 00:17:45;;;;;;;1.87;1.10;;;;;;;;;;5056804;28;20489;-71
2020/12/28 00:20:17;;;;;;;2.43;1.73;;;;;;;;;;5056019;28;20493;-72
2020/12/28 00:22:45;;;;;;;2.40;1.33;;;;;;;;;;5056730;28;20555;-71
2020/12/28 00:25:15;;;;;;;2.13;1.20;;;;;;;;;;5056433;28;20454;-71
2020/12/28 00:27:46;;;;;;;2.60;1.40;;;;;;;;;;5056647;28;20454;-72
2020/12/28 00:30:17;;;;;;;2.57;1.13;;;;;;;;;;5056769;28;20469;-71
2020/12/28 00:32:48;;;;;;;2.30;1.40;;;;;;;;;;5057244;28;20485;-71
2020/12/28 00:35:16;;;;;;;4.30;1.50;;;;;;;;;;5056533;28;20560;-72
2020/12/28 00:37:46;;;;;;;2.23;1.40;;;;;;;;;;5057064;28;20458;-71
2020/12/28 00:40:16;;;;;;;2.10;1.30;;;;;;;;;;5057176;28;20496;-71
2020/12/28 00:42:44;;;;;;;3.53;1.47;;;;;;;;;;5055666;28;20461;-71
2020/12/28 00:45:13;;;;;;;2.70;1.33;;;;;;;;;;5056432;28;20549;-72
2020/12/28 00:47:41;;;;;;;1.97;1.40;;;;;;;;;;5057066;28;20480;-72
2020/12/28 00:50:09;;;;;;;2.77;1.67;;;;;;;;;;5053005;28;20477;-72
2020/12/28 00:52:37;;;;;;;2.20;1.40;;;;;;;;;;5060750;28;20457;-72
2020/12/28 00:55:06;;;;;;;3.00;1.73;;;;;;;;;;5061007;28;20462;-72
2020/12/28 00:57:35;;;;;;;1.80;0.93;;;;;;;;;;5061240;28;20449;-72
2020/12/28 01:00:02;;;;;;;2.10;1.10;;;;;;;;;;5060674;28;20489;-71
2020/12/28 01:02:33;;;;;;;4.60;1.70;;;;;;;;;;5059577;28;20454;-72
2020/12/28 01:05:01;;;;;;;2.10;1.17;;;;;;;;;;5059278;28;20457;-72
2020/12/28 01:07:29;;;;;;;3.30;1.57;;;;;;;;;;5057670;28;20492;-72
2020/12/28 01:09:56;;;;;;;2.10;1.30;;;;;;;;;;5059339;28;20473;-72
2020/12/28 01:12:27;;;;;;;1.80;1.07;;;;;;;;;;5060192;28;20454;-72
2020/12/28 01:14:55;;;;;;;2.20;1.17;;;;;;;;;;5060420;28;20458;-72
2020/12/28 01:17:26;;;;;;;2.23;1.10;;;;;;;;;;5058531;28;20608;-73
2020/12/28 01:19:54;;;;;;;2.30;1.20;;;;;;;;;;5059385;28;20481;-73
2020/12/28 01:22:22;;;;;;;2.60;1.27;;;;;;;;;;5058183;28;20473;-72
2020/12/28 01:24:53;;;;;;;2.97;1.30;;;;;;;;;;5059361;28;20810;-72
2020/12/28 01:27:24;;;;;;;3.20;1.30;;;;;;;;;;5060923;28;20541;-72
2020/12/28 01:29:51;;;;;;;2.70;1.63;;;;;;;;;;5044881;28;20532;-72
2020/12/28 01:32:20;;;;;;;3.43;1.73;;;;;;;;;;5059210;28;20787;-71
2020/12/28 01:34:51;;;;;;;2.97;1.47;;;;;;;;;;5059624;28;20477;-73
2020/12/28 01:37:19;;;;;;;3.10;1.47;;;;;;;;;;5059215;28;20566;-73
2020/12/28 01:39:46;;;;;;;2.70;1.33;;;;;;;;;;5058415;28;20489;-73
2020/12/28 01:42:14;;;;;;;3.17;1.50;;;;;;;;;;5057544;28;20470;-72
2020/12/28 01:44:42;;;;;;;2.80;1.40;;;;;;;;;;5058673;28;20454;-73
2020/12/28 01:47:09;;;;;;;4.10;1.73;;;;;;;;;;5060369;28;20454;-72
2020/12/28 01:49:37;;;;;;;2.43;1.40;;;;;;;;;;5058612;28;20458;-72
2020/12/28 01:52:05;;;;;;;1.70;1.13;;;;;;;;;;5058817;28;20882;-72
2020/12/28 01:54:33;;;;;;;2.50;1.80;;;;;;;;;;5058913;28;20470;-72
2020/12/28 01:57:01;;;;;;;3.83;1.60;;;;;;;;;;5058489;28;20458;-72
2020/12/28 01:59:28;;;;;;;3.00;1.43;;;;;;;;;;5058919;28;20492;-72
2020/12/28 02:01:56;;;;;;;2.23;1.30;;;;;;;;;;5058494;28;20884;-72
2020/12/28 02:04:23;;;;;;;2.90;1.60;;;;;;;;;;5057506;28;20540;-71
2020/12/28 02:06:52;;;;;;;3.57;1.60;;;;;;;;;;5058660;28;20461;-72
2020/12/28 02:09:19;;;;;;;3.10;1.50;;;;;;;;;;5058999;28;20808;-72
2020/12/28 02:11:47;;;;;;;4.00;1.37;;;;;;;;;;5058664;28;20488;-72
2020/12/28 02:14:16;;;;;;;2.50;1.30;;;;;;;;;;5059039;28;20462;-72
2020/12/28 02:16:43;;;;;;;2.00;1.40;;;;;;;;;;5058444;28;20935;-72
2020/12/28 02:19:10;;;;;;;2.03;1.30;;;;;;;;;;5058309;28;20508;-72
2020/12/28 02:21:39;;;;;;;2.20;1.30;;;;;;;;;;5057887;28;20580;-72
2020/12/28 02:24:06;;;;;;;3.80;1.90;;;;;;;;;;5046749;28;20814;-71
2020/12/28 02:26:33;;;;;;;2.70;1.50;;;;;;;;;;5057801;28;20542;-71
2020/12/28 02:29:01;;;;;;;3.70;2.40;;;;;;;;;;5058977;28;20462;-72
2020/12/28 02:31:28;;;;;;;5.67;2.17;;;;;;;;;;5058860;28;20505;-72
2020/12/28 02:33:55;;;;;;;2.80;1.57;;;;;;;;;;5058152;28;20455;-72
2020/12/28 02:36:22;;;;;;;3.63;1.70;;;;;;;;;;5058196;28;20477;-72
2020/12/28 02:38:51;;;;;;;2.33;1.40;;;;;;;;;;5058176;28;20575;-72
2020/12/28 02:41:18;;;;;;;3.03;1.43;;;;;;;;;;5057001;28;20797;-72
2020/12/28 02:43:46;;;;;;;3.60;1.67;;;;;;;;;;5058198;28;20454;-72
2020/12/28 02:46:13;;;;;;;2.33;1.27;;;;;;;;;;5058307;28;20466;-72
2020/12/28 02:48:40;;;;;;;2.63;1.30;;;;;;;;;;5055680;28;20446;-72
2020/12/28 02:51:08;;;;;;;2.20;1.37;;;;;;;;;;5039889;28;20889;-72
2020/12/28 02:53:35;;;;;;;2.00;1.23;;;;;;;;;;5057546;28;20458;-72
2020/12/28 02:56:04;;;;;;;2.07;1.23;;;;;;;;;;5057410;28;20493;-72
2020/12/28 02:58:31;;;;;;;3.43;1.20;;;;;;;;;;5057179;28;20467;-72
2020/12/28 03:00:58;;;;;;;2.80;1.40;;;;;;;;;;5057642;28;20469;-73
2020/12/28 03:03:26;;;;;;;2.60;1.10;;;;;;;;;;5058124;28;20457;-72
2020/12/28 03:05:56;;;;;;;2.20;1.37;;;;;;;;;;5058140;28;20466;-73
2020/12/28 03:08:23;;;;;;;1.90;1.00;;;;;;;;;;5059088;28;20882;-73
2020/12/28 03:10:50;;;;;;;1.80;0.90;;;;;;;;;;5057138;28;20477;-73
2020/12/28 03:13:24;;;;;;;2.20;1.10;;;;;;;;;;5057503;28;20462;-72
2020/12/28 03:15:51;;;;;;;2.93;1.57;;;;;;;;;;5056862;28;20461;-73
2020/12/28 03:18:18;;;;;;;3.00;1.40;;;;;;;;;;5057753;28;20465;-72
2020/12/28 03:20:45;;;;;;;2.70;1.43;;;;;;;;;;5057436;28;20461;-72
2020/12/28 03:23:13;;;;;;;2.10;1.13;;;;;;;;;;5058286;28;21112;-72
2020/12/28 03:25:43;;;;;;;2.17;1.00;;;;;;;;;;5058613;28;21205;-72
2020/12/28 03:28:11;;;;;;;2.03;0.90;;;;;;;;;;5057809;28;20459;-73
2020/12/28 03:30:39;;;;;;;1.60;0.80;;;;;;;;;;5058028;28;20466;-72
2020/12/28 03:33:06;;;;;;;2.07;0.90;;;;;;;;;;5058436;28;20545;-73
2020/12/28 03:35:33;;;;;;;1.93;1.03;;;;;;;;;;5057293;28;20947;-73
2020/12/28 03:38:01;;;;;;;3.63;1.30;;;;;;;;;;5057261;28;20543;-72
2020/12/28 03:40:28;;;;;;;1.83;0.80;;;;;;;;;;5056642;28;20478;-72
2020/12/28 03:42:56;;;;;;;1.80;1.00;;;;;;;;;;5040123;28;20465;-72
2020/12/28 03:45:23;;;;;;;1.77;0.80;;;;;;;;;;5057199;28;20854;-72
2020/12/28 03:47:52;;;;;;;1.90;1.07;;;;;;;;;;5057327;28;20754;-72
2020/12/28 03:50:20;;;;;;;2.23;0.97;;;;;;;;;;5057270;28;20473;-72
2020/12/28 03:52:48;;;;;;;1.77;0.80;;;;;;;;;;5056870;28;20465;-72
2020/12/28 03:55:18;;;;;;;1.80;0.93;;;;;;;;;;5056854;28;20464;-72
2020/12/28 03:57:46;;;;;;;1.63;0.70;;;;;;;;;;5057114;28;20480;-72
2020/12/28 04:00:13;;;;;;;1.50;0.63;;;;;;;;;;5056354;28;20485;-72
2020/12/28 04:02:41;;;;;;;1.70;0.70;;;;;;;;;;5039423;28;20851;-72
2020/12/28 04:05:09;;;;;;;1.97;0.80;;;;;;;;;;5039816;28;20751;-72
2020/12/28 04:07:38;;;;;;;1.43;0.60;;;;;;;;;;5056847;28;21036;-73
2020/12/28 04:10:06;;;;;;;2.03;0.80;;;;;;;;;;5056354;28;20477;-73
2020/12/28 04:12:34;;;;;;;2.00;1.03;;;;;;;;;;5057904;28;20791;-71
2020/12/28 04:15:01;;;;;;;2.40;1.20;;;;;;;;;;5057367;28;20474;-72
2020/12/28 04:17:29;;;;;;;1.57;1.00;;;;;;;;;;5055705;28;20455;-72
2020/12/28 04:20:02;;;;;;;1.90;1.00;;;;;;;;;;5056590;28;20504;-72
2020/12/28 04:22:34;;;;;;;1.70;0.70;;;;;;;;;;5056480;28;20454;-72
2020/12/28 04:25:01;;;;;;;1.93;0.80;;;;;;;;;;5056282;28;20474;-73
2020/12/28 04:27:28;;;;;;;1.53;0.80;;;;;;;;;;5059828;28;20744;-72
2020/12/28 04:29:56;;;;;;;1.60;0.80;;;;;;;;;;5057363;28;20470;-72
2020/12/28 04:32:23;;;;;;;2.33;0.73;;;;;;;;;;5059967;28;21027;-72
2020/12/28 04:34:50;;;;;;;2.03;0.73;;;;;;;;;;5055159;28;20474;-72
2020/12/28 04:37:18;;;;;;;2.30;1.00;;;;;;;;;;5045207;28;20851;-72
2020/12/28 04:39:46;;;;;;;1.50;0.70;;;;;;;;;;5060126;28;20906;-72
2020/12/28 04:42:13;;;;;;;1.90;0.90;;;;;;;;;;5073524;28;20473;-72
2020/12/28 04:44:44;;;;;;;1.90;0.97;;;;;;;;;;5064047;28;20859;-72
2020/12/28 04:47:24;;;;;;;2.20;1.00;;;;;;;;;;5061511;28;20744;-74
2020/12/28 04:49:55;;;;;;;1.73;0.83;;;;;;;;;;5059989;28;20469;-73
2020/12/28 04:52:24;;;;;;;2.67;1.50;;;;;;;;;;5059886;28;20482;-72
2020/12/28 04:55:10;;;;;;;2.50;1.43;;;;;;;;;;5054534;28;20469;-72
2020/12/28 04:57:50;;;;;;;2.53;1.63;;;;;;;;;;5040503;28;20458;-71
2020/12/28 05:00:18;;;;;;;4.43;1.20;;;;;;;;;;5050602;28;20567;-72
2020/12/28 05:02:49;;;;;;;2.67;1.40;;;;;;;;;;5059490;28;20460;-72
2020/12/28 05:05:20;;;;;;;2.63;1.53;;;;;;;;;;5059356;28;20461;-71
2020/12/28 05:07:50;;;;;;;3.57;1.60;;;;;;;;;;5047466;28;20664;-72
2020/12/28 05:10:26;;;;;;;2.40;1.27;;;;;;;;;;5059139;28;20805;-72
2020/12/28 05:12:53;;;;;;;2.83;1.10;;;;;;;;;;5052443;28;20481;-71
2020/12/28 05:15:20;;;;;;;3.23;1.70;;;;;;;;;;5059761;28;20469;-73
2020/12/28 05:17:54;;;;;;;3.17;1.40;;;;;;;;;;5059686;28;20457;-72
2020/12/28 05:20:25;;;;;;;2.30;1.30;;;;;;;;;;5059837;28;20504;-72
2020/12/28 05:22:53;;;;;;;2.73;1.57;;;;;;;;;;5059567;28;20889;-72
2020/12/28 05:25:20;;;;;;;4.23;1.90;;;;;;;;;;5059837;28;20541;-72
2020/12/28 05:27:50;;;;;;;2.53;1.40;;;;;;;;;;5060521;28;20454;-72
2020/12/28 05:30:22;;;;;;;2.80;1.30;;;;;;;;;;5059778;28;20509;-72
2020/12/28 05:32:50;;;;;;;3.10;1.70;;;;;;;;;;5060415;28;20457;-71
2020/12/28 05:35:17;;;;;;;3.60;1.40;;;;;;;;;;5059583;28;20450;-71
2020/12/28 05:37:47;;;;;;;2.90;1.67;;;;;;;;;;5059070;28;20461;-71
2020/12/28 05:40:19;;;;;;;3.70;1.63;;;;;;;;;;5059309;28;20569;-73
2020/12/28 05:42:53;;;;;;;2.47;1.37;;;;;;;;;;5057787;28;20466;-72
2020/12/28 05:45:21;;;;;;;2.60;1.63;;;;;;;;;;5058547;28;20462;-72
2020/12/28 05:47:49;;;;;;;2.77;1.63;;;;;;;;;;5050342;28;20469;-73
2020/12/28 05:50:20;;;;;;;3.40;1.60;;;;;;;;;;5058709;28;20886;-72
2020/12/28 05:52:53;;;;;;;2.57;1.47;;;;;;;;;;5059313;28;20460;-73
2020/12/28 05:55:22;;;;;;;4.57;2.00;;;;;;;;;;5059666;28;20462;-72
2020/12/28 05:57:49;;;;;;;3.80;2.03;;;;;;;;;;5058488;28;20727;-72
2020/12/28 06:00:18;;;;;;;2.73;1.47;;;;;;;;;;5058580;28;20594;-72
2020/12/28 06:02:46;;;;;;;5.00;2.43;;;;;;;;;;5058551;28;20533;-72
2020/12/28 06:05:13;;;;;;;3.03;1.93;;;;;;;;;;5058056;28;20551;-72
2020/12/28 06:07:41;;;;;;;2.73;1.70;;;;;;;;;;5058401;28;20485;-72
2020/12/28 06:10:09;;;;;;;2.73;1.63;;;;;;;;;;5058616;28;20476;-72
2020/12/28 06:12:39;;;;;;;2.90;1.60;;;;;;;;;;5058235;28;20466;-72
2020/12/28 06:15:17;;;;;;;2.90;1.67;;;;;;;;;;5057513;28;20473;-72
2020/12/28 06:17:45;;;;;;;2.93;1.40;;;;;;;;;;5058056;28;20454;-72
2020/12/28 06:20:15;;;;;;;5.10;1.70;;;;;;;;;;5057076;28;20490;-72
2020/12/28 06:22:45;;;;;;;3.60;1.77;;;;;;;;;;5057936;28;20454;-72
2020/12/28 06:25:14;;;;;;;8.40;2.07;;;;;;;;;;5057076;28;20680;-72
2020/12/28 06:27:43;;;;;;;2.67;1.50;;;;;;;;;;5058135;28;20453;-72
2020/12/28 06:30:14;;;;;;;5.37;1.73;;;;;;;;;;5057876;28;20477;-72
2020/12/28 06:32:42;;;;;;;6.10;1.60;;;;;;;;;;5057165;28;20956;-72
2020/12/28 06:35:11;;;;;;;3.40;1.97;;;;;;;;;;5057169;28;20458;-72
2020/12/28 06:37:45;;;;;;;2.83;2.03;;;;;;;;;;5058736;28;20499;-72
2020/12/28 06:40:13;;;;;;;2.70;1.70;;;;;;;;;;5056520;28;20490;-72
2020/12/28 06:42:41;;;;;;;3.50;1.57;;;;;;;;;;5057746;28;20831;-72
2020/12/28 06:45:15;;;;;;;4.60;1.87;;;;;;;;;;5058656;28;20437;-72
2020/12/28 06:47:43;;;;;;;3.70;1.73;;;;;;;;;;5039440;28;20532;-72
2020/12/28 06:50:11;;;;;;;4.63;2.90;;;;;;;;;;5035978;28;20489;-72
2020/12/28 06:52:39;;;;;;;3.67;2.00;;;;;;;;;;5035755;28;20609;-72
2020/12/28 06:55:10;;;;;;;7.17;2.40;;;;;;;;;;5035176;28;20455;-72
2020/12/28 06:57:37;;;;;;;3.87;1.63;;;;;;;;;;5035762;28;20739;-72
2020/12/28 07:00:06;;;;;;;4.73;2.27;;;;;;;;;;5034613;28;20485;-73
2020/12/28 07:02:33;;;;;;;4.30;2.00;;;;;;;;;;5035352;28;20454;-72
2020/12/28 07:05:04;;;;;;;3.33;2.00;;;;;;;;;;5035363;28;20455;-72
2020/12/28 07:07:42;;;;;;;3.80;1.80;;;;;;;;;;5034399;28;20443;-72
2020/12/28 07:10:09;;;;;;;3.40;2.07;;;;;;;;;;5035139;28;20869;-71
2020/12/28 07:12:37;;;;;;;4.53;2.50;;;;;;;;;;5035652;28;20454;-72
2020/12/28 07:15:05;;;;;;;3.00;1.73;;;;;;;;;;5046401;28;20470;-71
2020/12/28 07:17:33;;;;;;;5.00;2.47;;;;;;;;;;5057140;28;20469;-71
2020/12/28 07:20:05;;;;;;;3.73;2.20;;;;;;;;;;5056330;28;20580;-72
2020/12/28 07:22:42;;;;;;;4.00;2.00;;;;;;;;;;5054713;28;20442;-73
2020/12/28 07:25:10;;;;;;;3.40;1.77;;;;;;;;;;5056794;28;20465;-72
2020/12/28 07:27:40;;;;;;;4.03;1.97;;;;;;;;;;5054380;28;20458;-73
2020/12/28 07:30:08;;;;;;;4.10;2.07;;;;;;;;;;5053308;28;20461;-72
2020/12/28 07:32:36;;;;;;;3.60;2.17;;;;;;;;;;5057269;28;21020;-72
2020/12/28 07:35:03;;;;;;;3.50;2.10;;;;;;;;;;5056210;28;20465;-72
2020/12/28 07:37:31;;;;;;;3.00;2.10;;;;;;;;;;5056306;28;20784;-72
2020/12/28 07:39:59;;;;;;;3.93;2.00;;;;;;;;;;5057139;28;20563;-72
2020/12/28 07:42:28;;;;;;;6.80;2.57;;;;;;;;;;5056496;28;20460;-71
2020/12/28 07:44:57;;;;;;;7.03;2.93;;;;;;;;;;5056012;28;20554;-71
2020/12/28 07:47:31;;;;;;;4.23;2.53;;;;;;;;;;5039577;28;20465;-72
2020/12/28 07:50:02;;;;;;;4.90;2.40;;;;;;;;;;5056171;28;20478;-72
2020/12/28 07:52:31;;;;;;;4.20;2.10;;;;;;;;;;5055201;28;20545;-72
2020/12/28 07:55:02;;;;;;;3.97;2.10;;;;;;;;;;5055893;28;20526;-71
2020/12/28 07:57:35;;;;;;;5.00;2.33;;;;;;;;;;5055636;28;20458;-71
2020/12/28 08:00:07;;;;;;;3.90;2.23;;;;;;;;;;5054955;28;20494;-72
2020/12/28 08:02:58;;;;;;;5.60;2.50;;;;;;;;;;5058913;28;20449;-71
2020/12/28 08:05:26;;;;;;;8.27;2.83;;;;;;;;;;5060837;28;20495;-71
2020/12/28 08:07:53;;;;;;;4.77;2.53;;;;;;;;;;5060554;28;20465;-71
2020/12/28 08:10:21;;;;;;;4.70;2.70;;;;;;;;;;5059370;28;20469;-71
2020/12/28 08:12:53;;;;;;;5.53;3.07;;;;;;;;;;5059422;28;20442;-71
2020/12/28 08:15:29;;;;;;;4.30;2.37;;;;;;;;;;5044444;28;20917;-72
2020/12/28 08:18:06;;;;;;;4.80;2.53;;;;;;;;;;5059788;28;20458;-72
2020/12/28 08:20:34;;;;;;;3.50;2.07;;;;;;;;;;5058663;28;20489;-72
2020/12/28 08:23:01;;;;;;;5.57;3.23;;;;;;;;;;5059068;28;20462;-72
2020/12/28 08:25:30;;;;;;;3.70;2.60;;;;;;;;;;5058042;28;20615;-72
2020/12/28 08:28:03;;;;;;;6.37;5.40;;;;;;;;;;5057402;28;20536;-72
2020/12/28 08:30:35;;;;;;;7.03;2.70;;;;;;;;;;5059284;28;20549;-71
2020/12/28 08:33:03;;;;;;;6.03;2.63;;;;;;;;;;5058506;28;20751;-72
2020/12/28 08:35:31;;;;;;;5.50;2.93;;;;;;;;;;5059631;28;20468;-72
2020/12/28 08:38:00;;;;;;;7.27;3.80;;;;;;;;;;5055590;28;20534;-72
2020/12/28 08:43:10;;;;;;;6.13;3.33;;;;;;;;;;5039708;28;20451;-72
2020/12/28 08:45:38;;;;;;;5.20;3.50;;;;;;;;;;5040284;28;20454;-72
2020/12/28 08:48:05;;;;;;;5.30;3.17;;;;;;;;;;5037821;28;20954;-72
2020/12/28 08:50:37;;;;;;;4.73;2.87;;;;;;;;;;5045582;28;20471;-72
2020/12/28 08:53:04;;;;;;;6.40;3.17;;;;;;;;;;5040050;28;20473;-71
2020/12/28 08:55:31;;;;;;;8.87;3.27;;;;;;;;;;5040470;28;20882;-71
2020/12/28 08:57:59;;;;;;;7.00;3.17;;;;;;;;;;5039025;28;20557;-71
2020/12/28 09:00:35;;;;;;;8.27;3.70;;;;;;;;;;5039313;28;20928;-73
2020/12/28 09:03:03;;;;;;;6.33;3.33;;;;;;;;;;5057536;28;20465;-72
2020/12/28 09:05:31;;;;;;;6.60;3.27;;;;;;;;;;5058424;28;20929;-72
2020/12/28 09:10:43;;;;;;;4.93;3.07;;;;;;;;;;5057180;28;20548;-73
2020/12/28 09:13:10;;;;;;;5.70;3.20;;;;;;;;;;5058694;28;20473;-72
2020/12/28 09:15:39;;;;;;;3.73;2.80;;;;;;;;;;5059193;28;20458;-72
2020/12/28 09:18:06;;;;;;;5.13;3.40;;;;;;;;;;5057996;28;20446;-72
2020/12/28 09:20:33;;;;;;;6.07;3.20;;;;;;;;;;5057308;28;20485;-72
2020/12/28 09:23:01;;;;;;;4.10;2.93;;;;;;;;;;5058414;28;20480;-72
2020/12/28 09:25:33;;;;;;;4.83;3.10;;;;;;;;;;5057842;28;20983;-72
2020/12/28 09:28:01;;;;;;;5.90;3.13;;;;;;;;;;5057861;28;20487;-72
2020/12/28 09:30:31;;;;;;;9.67;3.33;;;;;;;;;;5058809;28;20458;-73
2020/12/28 09:33:18;;;;;;;5.27;2.83;;;;;;;;;;5059106;28;20477;-74
2020/12/28 09:36:08;;;;;;;6.13;2.80;;;;;;;;;;5058867;28;20465;-71
2020/12/28 09:38:45;;;;;;;4.37;2.90;;;;;;;;;;5042291;28;20472;-71
2020/12/28 09:41:17;;;;;;;6.37;3.23;;;;;;;;;;5057983;28;20484;-71
2020/12/28 09:43:52;;;;;;;6.30;4.07;;;;;;;;;;5058205;28;20750;-72
2020/12/28 09:46:25;;;;;;;8.17;3.77;;;;;;;;;;5057824;28;20496;-72
2020/12/28 09:48:53;;;;;;;8.87;4.03;;;;;;;;;;5057438;28;20497;-72
2020/12/28 09:51:21;;;;;;;5.40;3.03;;;;;;;;;;5057181;28;20470;-72
2020/12/28 09:53:50;;;;;;;4.50;2.80;;;;;;;;;;5041583;28;20451;-72
2020/12/28 09:56:20;;;;;;;4.93;3.30;;;;;;;;;;5036821;28;20462;-72
2020/12/28 09:58:51;;;;;;;8.20;3.60;;;;;;;;;;5013384;28;20470;-71
2020/12/28 10:01:18;;;;;;;7.23;3.83;;;;;;;;;;5037170;28;20818;-71
2020/12/28 10:03:46;;;;;;;6.23;3.67;;;;;;;;;;5041762;28;20947;-72
2020/12/28 10:06:31;;;;;;;6.53;4.13;;;;;;;;;;5056539;28;20539;-71
2020/12/28 10:09:00;;;;;;;6.90;3.20;;;;;;;;;;5056409;28;20458;-72
2020/12/28 10:11:28;;;;;;;7.37;3.73;;;;;;;;;;5056674;28;20466;-72
2020/12/28 10:13:55;;;;;;;6.17;3.50;;;;;;;;;;5056656;28;20527;-72
2020/12/28 10:16:23;;;;;;;5.53;3.27;;;;;;;;;;5055695;28;20555;-72
2020/12/28 10:18:52;;;;;;;5.60;3.93;;;;;;;;;;5056308;28;20740;-72
2020/12/28 10:21:20;;;;;;;5.93;3.40;;;;;;;;;;5056173;28;20481;-71
2020/12/28 10:23:50;;;;;;;5.83;3.73;;;;;;;;;;5056639;28;20591;-73
2020/12/28 10:26:19;;;;;;;5.60;4.00;;;;;;;;;;5057924;28;20553;-72
2020/12/28 10:28:53;;;;;;;5.60;3.43;;;;;;;;;;5045038;28;20466;-73
2020/12/28 10:31:25;;;;;;;4.93;3.43;;;;;;;;;;5054579;28;20469;-73
2020/12/28 10:33:53;;;;;;;5.57;3.83;;;;;;;;;;5056413;28;20456;-72
2020/12/28 10:36:21;;;;;;;7.53;3.90;;;;;;;;;;5056914;28;20712;-72
2020/12/28 10:38:48;;;;;;;6.80;4.20;;;;;;;;;;5056131;28;20483;-72
2020/12/28 10:41:16;;;;;;;5.37;3.13;;;;;;;;;;5055900;28;21036;-73
2020/12/28 10:43:48;;;;;;;8.40;4.10;;;;;;;;;;5055240;28;20973;-72
2020/12/28 10:46:16;;;;;;;6.83;3.77;;;;;;;;;;5054019;28;20684;-70
2020/12/28 10:48:43;;;;;;;5.60;3.20;;;;;;;;;;5055854;28;20473;-72
2020/12/28 10:51:12;;;;;;;6.13;3.90;;;;;;;;;;5055572;28;20454;-72
2020/12/28 10:53:39;;;;;;;6.80;4.10;;;;;;;;;;5053617;28;20516;-72
2020/12/28 10:56:08;;;;;;;5.07;3.47;;;;;;;;;;5054331;28;20460;-72
2020/12/28 10:58:35;;;;;;;6.80;4.60;;;;;;;;;;5056453;28;20474;-72
2020/12/28 11:01:03;;;;;;;4.90;3.53;;;;;;;;;;5055543;28;20489;-71
2020/12/28 11:03:33;;;;;;;3.83;3.27;;;;;;;;;;5055542;28;20470;-72
2020/12/28 11:06:02;;;;;;;5.67;4.00;;;;;;;;;;5053997;28;20767;-72
2020/12/28 11:08:29;;;;;;;5.13;3.47;;;;;;;;;;5058886;28;20492;-73
2020/12/28 11:10:56;;;;;;;6.57;3.93;;;;;;;;;;5058185;28;20485;-71
2020/12/28 11:13:24;;;;;;;5.73;3.70;;;;;;;;;;5057107;28;20464;-72
2020/12/28 11:15:51;;;;;;;5.50;3.63;;;;;;;;;;5053195;28;20451;-72
2020/12/28 11:18:20;;;;;;;6.93;3.80;;;;;;;;;;5056934;28;20469;-72
2020/12/28 11:20:47;;;;;;;12.33;4.00;;;;;;;;;;5056816;28;20593;-72
2020/12/28 11:23:17;;;;;;;6.00;3.90;;;;;;;;;;5056586;28;20465;-71
2020/12/28 11:25:44;;;;;;;4.87;3.00;;;;;;;;;;5055955;28;20485;-71
2020/12/28 11:28:11;;;;;;;5.33;3.63;;;;;;;;;;5054944;28;20469;-71
2020/12/28 11:30:39;;;;;;;7.20;4.40;;;;;;;;;;5055311;28;20466;-71
2020/12/28 11:33:06;;;;;;;5.50;3.70;;;;;;;;;;5056544;28;20471;-72
2020/12/28 11:35:35;;;;;;;6.00;3.77;;;;;;;;;;5054697;28;20756;-72
2020/12/28 11:38:02;;;;;;;4.60;3.43;;;;;;;;;;5055345;28;20792;-72
2020/12/28 11:40:30;;;;;;;6.07;4.03;;;;;;;;;;5054781;28;20516;-72
2020/12/28 11:42:58;;;;;;;6.13;4.00;;;;;;;;;;5055508;28;20465;-72
2020/12/28 11:45:25;;;;;;;6.77;3.90;;;;;;;;;;5055807;28;20461;-72
2020/12/28 11:47:52;;;;;;;6.30;4.50;;;;;;;;;;5055446;28;20732;-72
2020/12/28 11:50:19;;;;;;;5.50;3.90;;;;;;;;;;5055328;28;20473;-72
2020/12/28 11:52:49;;;;;;;7.33;4.70;;;;;;;;;;5053692;28;20770;-72
2020/12/28 11:55:17;;;;;;;5.60;4.13;;;;;;;;;;5053865;28;20466;-72
2020/12/28 11:57:44;;;;;;;5.80;3.73;;;;;;;;;;5054989;28;20503;-71
2020/12/28 12:00:11;;;;;;;7.00;4.33;;;;;;;;;;5053390;28;20488;-71
2020/12/28 12:02:39;;;;;;;6.37;4.40;;;;;;;;;;5054085;28;20462;-72
2020/12/28 12:05:13;;;;;;;8.00;4.87;;;;;;;;;;5063386;28;20468;-73
2020/12/28 12:07:40;;;;;;;7.53;4.83;;;;;;;;;;5032752;28;20451;-73
2020/12/28 12:10:08;;;;;;;8.83;5.17;;;;;;;;;;5033261;28;20478;-72
2020/12/28 12:12:36;;;;;;;7.10;4.77;;;;;;;;;;5033069;28;20482;-72
2020/12/28 12:15:03;;;;;;;7.80;4.00;;;;;;;;;;5033869;28;21002;-72
2020/12/28 12:17:30;;;;;;;7.03;4.00;;;;;;;;;;5032392;28;20545;-71
2020/12/28 12:19:58;;;;;;;9.10;4.70;;;;;;;;;;5033646;28;20501;-71
2020/12/28 12:22:25;;;;;;;6.60;4.43;;;;;;;;;;5033518;28;20446;-71
2020/12/28 12:24:52;;;;;;;9.27;4.87;;;;;;;;;;5033832;28;20786;-71
2020/12/28 12:27:21;;;;;;;6.97;4.50;;;;;;;;;;5034326;28;20791;-71
2020/12/28 12:29:48;;;;;;;7.27;4.50;;;;;;;;;;5026842;28;20857;-72
2020/12/28 12:32:15;;;;;;;7.07;4.43;;;;;;;;;;5034683;28;20458;-72
2020/12/28 12:34:44;;;;;;;14.00;4.83;;;;;;;;;;5035012;28;20475;-72
2020/12/28 12:37:12;;;;;;;9.13;4.40;;;;;;;;;;5035200;28;20930;-73
2020/12/28 12:39:39;;;;;;;7.17;4.93;;;;;;;;;;5045257;28;20486;-72
2020/12/28 12:42:06;;;;;;;5.80;4.17;;;;;;;;;;5054224;28;20468;-72
2020/12/28 12:44:36;;;;;;;6.53;4.70;;;;;;;;;;5055935;28;20465;-72
2020/12/28 12:47:03;;;;;;;6.37;4.20;;;;;;;;;;5056300;28;20464;-72
2020/12/28 12:49:31;;;;;;;6.87;3.90;;;;;;;;;;5060629;28;20484;-72
2020/12/28 12:52:11;;;;;;;6.23;4.17;;;;;;;;;;5058542;28;20442;-73
2020/12/28 12:54:39;;;;;;;5.40;3.57;;;;;;;;;;5058634;28;20823;-72
2020/12/28 12:57:17;;;;;;;7.37;4.20;;;;;;;;;;5061187;28;20457;-71
2020/12/28 13:02:45;;;;;;;6.47;3.73;;;;;;;;;;5062618;28;20584;-72
2020/12/28 13:05:24;;;;;;;5.60;3.40;;;;;;;;;;5057253;28;20527;-71
2020/12/28 13:07:52;;;;;;;5.63;4.10;;;;;;;;;;5056600;28;20735;-71
2020/12/28 13:10:26;;;;;;;4.90;3.50;;;;;;;;;;5063499;28;20484;-71
2020/12/28 13:12:54;;;;;;;6.43;3.80;;;;;;;;;;5061748;28;20461;-71
2020/12/28 13:15:22;;;;;;;6.93;3.83;;;;;;;;;;5045707;28;20821;-70
2020/12/28 13:17:51;;;;;;;6.60;3.40;;;;;;;;;;5042090;28;20540;-70
2020/12/28 13:20:20;;;;;;;6.10;3.53;;;;;;;;;;5039843;28;20907;-72
2020/12/28 13:22:48;;;;;;;7.83;3.90;;;;;;;;;;5041257;28;20631;-71
2020/12/28 13:25:21;;;;;;;5.53;3.63;;;;;;;;;;5039741;28;20882;-72
2020/12/28 13:27:52;;;;;;;4.40;2.90;;;;;;;;;;5033727;28;20455;-71
2020/12/28 13:30:24;;;;;;;5.50;3.70;;;;;;;;;;5041385;28;20467;-71
2020/12/28 13:32:51;;;;;;;5.67;3.97;;;;;;;;;;5041013;28;20478;-72
2020/12/28 13:35:19;;;;;;;4.33;3.00;;;;;;;;;;5041943;28;20491;-71
2020/12/28 13:37:47;;;;;;;5.33;3.37;;;;;;;;;;5041020;28;20781;-71
2020/12/28 13:40:20;;;;;;;4.00;2.70;;;;;;;;;;5063013;28;20484;-71
2020/12/28 13:42:51;;;;;;;4.27;2.30;;;;;;;;;;5040493;28;20755;-71
2020/12/28 13:45:19;;;;;;;5.03;3.30;;;;;;;;;;5039402;28;20466;-71
2020/12/28 13:54:01;;;;;;;5.30;3.50;;;;;;;;;;5051954;28;20445;-73
2020/12/28 13:56:32;;;;;;;4.80;2.83;;;;;;;;;;5038180;28;20543;-73
2020/12/28 13:59:00;;;;;;;5.27;2.87;;;;;;;;;;5040522;28;20466;-72
2020/12/28 14:01:29;;;;;;;5.70;3.40;;;;;;;;;;5037619;28;20495;-72
2020/12/28 14:03:56;;;;;;;5.27;3.63;;;;;;;;;;5037586;28;20498;-72
2020/12/28 14:06:27;;;;;;;6.27;3.53;;;;;;;;;;5037951;28;20459;-73
2020/12/28 14:08:55;;;;;;;8.83;3.50;;;;;;;;;;5038149;28;20473;-72
2020/12/28 14:11:24;;;;;;;6.67;4.37;;;;;;;;;;5039288;28;20459;-72
2020/12/28 14:13:58;;;;;;;6.43;3.53;;;;;;;;;;5038566;28;20470;-72
2020/12/28 14:16:29;;;;;;;4.70;2.93;;;;;;;;;;5036608;28;20490;-73
2020/12/28 14:18:58;;;;;;;6.13;3.53;;;;;;;;;;5038378;28;20467;-72
2020/12/28 14:21:26;;;;;;;5.90;3.50;;;;;;;;;;5035071;28;20518;-71
2020/12/28 14:23:58;;;;;;;6.67;3.90;;;;;;;;;;5038682;28;20479;-74
2020/12/28 14:26:32;;;;;;;6.30;3.77;;;;;;;;;;5048170;28;20450;-71
2020/12/28 14:29:03;;;;;;;6.40;3.33;;;;;;;;;;5041131;28;20544;-71
2020/12/28 14:31:32;;;;;;;6.30;3.77;;;;;;;;;;5059968;28;20741;-72
2020/12/28 14:33:59;;;;;;;7.00;3.57;;;;;;;;;;5057987;28;20501;-70
2020/12/28 14:36:28;;;;;;;6.43;3.57;;;;;;;;;;5058560;28;20477;-73
2020/12/28 14:38:59;;;;;;;5.93;3.67;;;;;;;;;;5056132;28;20520;-73
2020/12/28 14:41:30;;;;;;;5.90;4.30;;;;;;;;;;5055872;28;20494;-71
2020/12/28 14:44:02;;;;;;;5.83;4.57;;;;;;;;;;5055645;28;20462;-73
2020/12/28 14:46:37;;;;;;;5.73;3.20;;;;;;;;;;5057738;28;20585;-73
2020/12/28 14:49:09;;;;;;;4.70;3.33;;;;;;;;;;5056440;28;20530;-71
2020/12/28 14:51:37;;;;;;;6.17;4.00;;;;;;;;;;5056194;28;20607;-72
2020/12/28 14:54:09;;;;;;;6.77;4.23;;;;;;;;;;5057432;28;20520;-73
2020/12/28 14:56:37;;;;;;;9.20;3.43;;;;;;;;;;5055867;28;20525;-72
2020/12/28 14:59:15;;;;;;;9.67;4.90;;;;;;;;;;5055224;28;20534;-71
2020/12/28 15:01:42;;;;;;;6.40;3.57;;;;;;;;;;5056627;28;20584;-71
2020/12/28 15:04:15;;;;;;;6.00;3.80;;;;;;;;;;5056159;28;20739;-72
2020/12/28 15:06:43;;;;;;;7.27;4.10;;;;;;;;;;5054374;28;20453;-73
2020/12/28 15:09:15;;;;;;;5.87;4.33;;;;;;;;;;5055200;28;20450;-72